Time;durP1;ratioP1;P1;durP2;ratioP2;P2;SDS_P1;SDS_P2;PMS_P1;PMS_P2;Temp;Humidity;BMP_temperature;BMP_pressure;BME280_temperature;BME280_humidity;BME280_pressure;Samples;Min_cycle;Max_cycle;Signal;HPM_P1;HPM_P2
2022/05/25 00:01:22;;;;;;;0.77;0.60;;;;;;;;;;4599339;27;20324;-70
2022/05/25 00:03:34;;;;;;;2.53;0.60;;;;;;;;;;4595883;27;20066;-70
2022/05/25 00:05:44;;;;;;;1.05;0.60;;;;;;;;;;4598037;27;20062;-70
2022/05/25 00:07:55;;;;;;;0.87;0.47;;;;;;;;;;4597191;27;20078;-70
2022/05/25 00:10:06;;;;;;;1.90;0.50;;;;;;;;;;4596817;27;42088;-70
2022/05/25 00:12:17;;;;;;;1.33;0.60;;;;;;;;;;4596923;27;20074;-70
2022/05/25 00:14:27;;;;;;;1.05;0.70;;;;;;;;;;4596754;27;20032;-70
2022/05/25 00:16:38;;;;;;;1.03;0.50;;;;;;;;;;4598959;27;20031;-71
2022/05/25 00:21:17;;;;;;;0.63;0.45;;;;;;;;;;4598470;27;20034;-71
2022/05/25 00:23:28;;;;;;;0.70;0.50;;;;;;;;;;4599170;27;22559;-70
2022/05/25 00:25:40;;;;;;;0.70;0.50;;;;;;;;;;4597939;27;20084;-70
2022/05/25 00:27:51;;;;;;;0.80;0.70;;;;;;;;;;4599508;27;20832;-70
2022/05/25 00:30:02;;;;;;;0.90;0.50;;;;;;;;;;4596005;27;20183;-70
2022/05/25 00:32:13;;;;;;;0.60;0.60;;;;;;;;;;4597121;27;20262;-70
2022/05/25 00:34:23;;;;;;;1.00;0.70;;;;;;;;;;4598798;27;20080;-70
2022/05/25 00:36:34;;;;;;;1.23;0.67;;;;;;;;;;4597462;27;20031;-70
2022/05/25 00:38:44;;;;;;;0.93;0.70;;;;;;;;;;4597825;27;22768;-70
2022/05/25 00:40:57;;;;;;;0.83;0.53;;;;;;;;;;4600176;27;20081;-70
2022/05/25 00:43:08;;;;;;;1.17;0.80;;;;;;;;;;4598053;27;20031;-70
2022/05/25 00:45:19;;;;;;;0.90;0.70;;;;;;;;;;4599852;27;20042;-70
2022/05/25 00:47:31;;;;;;;2.43;0.80;;;;;;;;;;4598287;27;31510;-70
2022/05/25 00:49:41;;;;;;;;;;;;;;;;;;4598397;27;20972;-69
2022/05/25 00:52:02;;;;;;;1.80;0.82;;;;;;;;;;4582828;27;19915;-70
2022/05/25 00:54:23;;;;;;;0.70;0.60;;;;;;;;;;4588917;27;20035;-70
2022/05/25 00:56:34;;;;;;;0.93;0.70;;;;;;;;;;4597161;27;20024;-70
2022/05/25 00:58:49;;;;;;;1.65;0.70;;;;;;;;;;4595967;27;20035;-70
2022/05/25 01:01:00;;;;;;;1.85;0.63;;;;;;;;;;4596509;27;20057;-70
2022/05/25 01:03:11;;;;;;;;;;;;;;;;;;4597616;27;20077;-68
2022/05/25 01:05:28;;;;;;;0.88;0.57;;;;;;;;;;4597823;27;19915;-70
2022/05/25 01:08:27;;;;;;;0.63;0.63;;;;;;;;;;4599118;27;20096;-69
2022/05/25 01:10:49;;;;;;;1.75;0.90;;;;;;;;;;4550201;28;20657;-70
2022/05/25 01:13:14;;;;;;;0.90;0.70;;;;;;;;;;4533266;28;20602;-70
2022/05/25 01:15:40;;;;;;;1.02;0.60;;;;;;;;;;4551175;28;20071;-70
2022/05/25 01:18:07;;;;;;;0.70;0.60;;;;;;;;;;4533738;28;20044;-69
2022/05/25 01:20:50;;;;;;;1.77;0.77;;;;;;;;;;4551607;28;20041;-70
2022/05/25 01:23:25;;;;;;;1.48;0.60;;;;;;;;;;4524088;28;20056;-70
2022/05/25 01:25:59;;;;;;;1.10;0.70;;;;;;;;;;4534975;28;20122;-70
2022/05/25 01:28:27;;;;;;;0.93;0.70;;;;;;;;;;4551996;28;20052;-70
2022/05/25 01:30:39;;;;;;;0.70;0.68;;;;;;;;;;4533408;28;20113;-70
2022/05/25 01:33:23;;;;;;;1.38;0.77;;;;;;;;;;4534907;28;20438;-70
2022/05/25 01:35:50;;;;;;;1.15;0.75;;;;;;;;;;4549370;28;20052;-70
2022/05/25 01:38:09;;;;;;;0.60;0.60;;;;;;;;;;4550358;28;20047;-70
2022/05/25 01:40:45;;;;;;;1.45;0.82;;;;;;;;;;4533454;28;20155;-70
2022/05/25 01:43:00;;;;;;;0.73;0.60;;;;;;;;;;4596545;27;20031;-70
2022/05/25 01:45:11;;;;;;;1.33;0.80;;;;;;;;;;4601102;27;20031;-70
2022/05/25 01:47:25;;;;;;;1.60;0.87;;;;;;;;;;4595288;27;20047;-70
2022/05/25 01:49:45;;;;;;;0.65;0.50;;;;;;;;;;4599105;27;20261;-70
2022/05/25 01:52:00;;;;;;;1.52;0.68;;;;;;;;;;4595254;27;20031;-70
2022/05/25 01:54:14;;;;;;;1.10;0.63;;;;;;;;;;4600982;27;20083;-69
2022/05/25 01:56:26;;;;;;;1.23;0.65;;;;;;;;;;4595160;27;20035;-70
2022/05/25 01:58:39;;;;;;;0.90;0.60;;;;;;;;;;4600632;27;20036;-70
2022/05/25 02:00:54;;;;;;;0.65;0.50;;;;;;;;;;4600412;27;20795;-70
2022/05/25 02:05:36;;;;;;;1.02;0.73;;;;;;;;;;4600135;27;20035;-70
2022/05/25 02:07:59;;;;;;;1.00;0.80;;;;;;;;;;4594984;27;20107;-70
2022/05/25 02:10:28;;;;;;;0.50;0.50;;;;;;;;;;4595370;27;20038;-70
2022/05/25 02:12:53;;;;;;;0.95;0.60;;;;;;;;;;4596377;27;20051;-70
2022/05/25 02:15:23;;;;;;;0.75;0.63;;;;;;;;;;4597323;27;20047;-70
2022/05/25 02:17:52;;;;;;;0.88;0.63;;;;;;;;;;4597540;27;20035;-70
2022/05/25 02:20:09;;;;;;;0.88;0.60;;;;;;;;;;4596403;27;20042;-70
2022/05/25 02:22:24;;;;;;;0.95;0.70;;;;;;;;;;4595052;27;20039;-70
2022/05/25 02:24:48;;;;;;;1.50;0.70;;;;;;;;;;4598423;27;20051;-70
2022/05/25 02:27:05;;;;;;;1.27;0.70;;;;;;;;;;4596208;27;20071;-70
2022/05/25 02:29:44;;;;;;;1.98;0.98;;;;;;;;;;4597076;27;20247;-70
2022/05/25 02:32:04;;;;;;;0.70;0.52;;;;;;;;;;4593449;27;20051;-70
2022/05/25 02:34:16;;;;;;;2.47;0.88;;;;;;;;;;4597421;27;20031;-70
2022/05/25 02:36:28;;;;;;;1.17;0.70;;;;;;;;;;4595180;27;20044;-70
2022/05/25 02:38:40;;;;;;;1.05;0.60;;;;;;;;;;4598388;27;20027;-70
2022/05/25 02:41:02;;;;;;;0.85;0.70;;;;;;;;;;4594882;27;20183;-70
2022/05/25 02:43:13;;;;;;;0.50;0.50;;;;;;;;;;4597298;27;20031;-70
2022/05/25 02:45:23;;;;;;;1.07;0.90;;;;;;;;;;4596151;27;20527;-70
2022/05/25 02:47:34;;;;;;;1.20;0.73;;;;;;;;;;4596843;27;20598;-70
2022/05/25 02:49:45;;;;;;;1.70;0.73;;;;;;;;;;4596538;27;20335;-70
2022/05/25 02:51:55;;;;;;;1.33;0.90;;;;;;;;;;4594521;27;20031;-70
2022/05/25 02:54:06;;;;;;;0.80;0.60;;;;;;;;;;4596212;27;20114;-70
2022/05/25 02:56:17;;;;;;;1.83;0.70;;;;;;;;;;4604451;27;20042;-71
2022/05/25 02:58:27;;;;;;;0.77;0.63;;;;;;;;;;4594475;27;20502;-70
2022/05/25 03:00:38;;;;;;;1.10;0.70;;;;;;;;;;4596519;27;20070;-70
2022/05/25 03:02:48;;;;;;;0.93;0.67;;;;;;;;;;4596710;27;23476;-70
2022/05/25 03:04:58;;;;;;;1.43;0.90;;;;;;;;;;4596776;27;24124;-70
2022/05/25 03:07:09;;;;;;;1.57;0.80;;;;;;;;;;4595201;27;40783;-70
2022/05/25 03:09:20;;;;;;;1.00;0.70;;;;;;;;;;4596381;27;20031;-70
2022/05/25 03:11:30;;;;;;;0.90;0.60;;;;;;;;;;4595796;27;20038;-70
2022/05/25 03:13:41;;;;;;;0.60;0.60;;;;;;;;;;4595726;27;31824;-71
2022/05/25 03:15:52;;;;;;;0.70;0.60;;;;;;;;;;4592940;27;20088;-71
2022/05/25 03:18:03;;;;;;;0.60;0.60;;;;;;;;;;4595860;27;20038;-71
2022/05/25 03:20:14;;;;;;;2.42;0.60;;;;;;;;;;4594146;27;20035;-70
2022/05/25 03:22:25;;;;;;;0.60;0.60;;;;;;;;;;4594668;27;20032;-70
2022/05/25 03:24:36;;;;;;;1.20;0.73;;;;;;;;;;4582400;27;20818;-69
2022/05/25 03:26:46;;;;;;;0.83;0.67;;;;;;;;;;4595843;27;20043;-70
2022/05/25 03:28:57;;;;;;;1.47;0.60;;;;;;;;;;4597337;27;20040;-70
2022/05/25 03:31:07;;;;;;;0.73;0.70;;;;;;;;;;4595448;27;20085;-69
2022/05/25 03:33:17;;;;;;;1.73;0.83;;;;;;;;;;4593259;27;20035;-69
2022/05/25 03:35:28;;;;;;;1.93;0.90;;;;;;;;;;4594806;27;24601;-70
2022/05/25 03:37:38;;;;;;;1.03;0.90;;;;;;;;;;4591685;27;20036;-70
2022/05/25 03:39:49;;;;;;;3.00;0.90;;;;;;;;;;4594581;27;20023;-70
2022/05/25 03:42:04;;;;;;;0.80;0.80;;;;;;;;;;4595136;27;20035;-70
2022/05/25 03:44:15;;;;;;;0.90;0.70;;;;;;;;;;4594363;27;20148;-70
2022/05/25 03:46:26;;;;;;;1.00;0.70;;;;;;;;;;4596586;27;20041;-70
2022/05/25 03:48:36;;;;;;;0.97;0.87;;;;;;;;;;4592336;27;20467;-70
2022/05/25 03:50:46;;;;;;;0.83;0.67;;;;;;;;;;4594710;27;20036;-70
2022/05/25 03:52:57;;;;;;;1.40;0.80;;;;;;;;;;4594311;27;20636;-70
2022/05/25 03:55:08;;;;;;;0.80;0.70;;;;;;;;;;4593860;27;25951;-70
2022/05/25 03:57:18;;;;;;;1.37;0.70;;;;;;;;;;4596608;27;20070;-70
2022/05/25 03:59:29;;;;;;;1.00;0.70;;;;;;;;;;4593634;27;20280;-70
2022/05/25 04:01:39;;;;;;;0.90;0.60;;;;;;;;;;4595757;27;20274;-70
2022/05/25 04:03:49;;;;;;;1.23;0.90;;;;;;;;;;4594868;27;20024;-70
2022/05/25 04:06:00;;;;;;;2.07;0.90;;;;;;;;;;4594609;27;27163;-70
2022/05/25 04:08:11;;;;;;;1.17;0.73;;;;;;;;;;4596870;27;20047;-69
2022/05/25 04:10:22;;;;;;;1.15;0.75;;;;;;;;;;4593905;27;21391;-70
2022/05/25 04:12:33;;;;;;;0.95;0.60;;;;;;;;;;4593712;27;21408;-70
2022/05/25 04:14:44;;;;;;;1.60;0.82;;;;;;;;;;4593994;27;20027;-70
2022/05/25 04:16:54;;;;;;;1.27;0.80;;;;;;;;;;4594221;27;42546;-70
2022/05/25 04:19:04;;;;;;;1.37;0.97;;;;;;;;;;4593983;27;29110;-70
2022/05/25 04:21:15;;;;;;;0.60;0.60;;;;;;;;;;4596037;27;20059;-69
2022/05/25 04:23:27;;;;;;;1.10;0.80;;;;;;;;;;4594960;27;20028;-69
2022/05/25 04:25:40;;;;;;;0.80;0.60;;;;;;;;;;4592510;27;20035;-69
2022/05/25 04:27:52;;;;;;;0.80;0.70;;;;;;;;;;4593449;27;20103;-70
2022/05/25 04:30:04;;;;;;;0.77;0.60;;;;;;;;;;4596280;27;20036;-70
2022/05/25 04:32:17;;;;;;;1.13;0.70;;;;;;;;;;4596678;27;21098;-69
2022/05/25 04:34:28;;;;;;;1.00;0.63;;;;;;;;;;4595895;27;20111;-70
2022/05/25 04:36:40;;;;;;;1.67;0.87;;;;;;;;;;4598607;27;20705;-69
2022/05/25 04:38:50;;;;;;;0.85;0.70;;;;;;;;;;4598014;27;20032;-70
2022/05/25 04:41:01;;;;;;;1.60;0.90;;;;;;;;;;4596864;27;20035;-69
2022/05/25 04:43:17;;;;;;;0.95;0.80;;;;;;;;;;4596713;27;20036;-69
2022/05/25 04:45:28;;;;;;;1.08;0.60;;;;;;;;;;4597768;27;20077;-69
2022/05/25 04:47:40;;;;;;;1.37;0.80;;;;;;;;;;4597745;27;20097;-69
2022/05/25 04:49:50;;;;;;;;;;;;;;;;;;4599404;27;20039;-69
2022/05/25 04:52:01;;;;;;;1.00;0.80;;;;;;;;;;4598633;27;19916;-69
2022/05/25 04:54:11;;;;;;;0.80;0.70;;;;;;;;;;4598990;27;20023;-69
2022/05/25 04:58:52;;;;;;;1.75;0.70;;;;;;;;;;4607331;27;20035;-69
2022/05/25 05:01:04;;;;;;;1.17;0.80;;;;;;;;;;4599004;27;20043;-69
2022/05/25 05:03:15;;;;;;;0.95;0.80;;;;;;;;;;4599835;27;20075;-69
2022/05/25 05:05:26;;;;;;;1.35;0.98;;;;;;;;;;4598361;27;20439;-69
2022/05/25 05:07:36;;;;;;;1.87;0.70;;;;;;;;;;4598384;27;20039;-69
2022/05/25 05:09:47;;;;;;;1.00;0.77;;;;;;;;;;4599362;27;20514;-69
2022/05/25 05:11:58;;;;;;;1.43;0.70;;;;;;;;;;4595753;27;20039;-69
2022/05/25 05:14:08;;;;;;;1.20;0.73;;;;;;;;;;4599044;27;20035;-69
2022/05/25 05:16:18;;;;;;;1.03;0.60;;;;;;;;;;4596590;27;20039;-69
2022/05/25 05:18:36;;;;;;;0.93;0.70;;;;;;;;;;4606905;27;20035;-70
2022/05/25 05:21:07;;;;;;;1.17;0.68;;;;;;;;;;4589551;27;20027;-69
2022/05/25 05:23:18;;;;;;;0.90;0.70;;;;;;;;;;4599261;27;20553;-70
2022/05/25 05:25:28;;;;;;;1.07;0.60;;;;;;;;;;4596150;27;20039;-69
2022/05/25 05:27:39;;;;;;;1.30;0.70;;;;;;;;;;4598091;27;20043;-70
2022/05/25 05:29:49;;;;;;;1.80;0.73;;;;;;;;;;4580456;27;40865;-68
2022/05/25 05:31:59;;;;;;;1.73;0.80;;;;;;;;;;4596963;27;20521;-67
2022/05/25 05:34:10;;;;;;;1.10;0.70;;;;;;;;;;4597399;27;22025;-68
2022/05/25 05:36:27;;;;;;;1.43;0.63;;;;;;;;;;4598201;27;20042;-70
2022/05/25 05:38:46;;;;;;;1.38;0.70;;;;;;;;;;4600717;27;20031;-70
2022/05/25 05:40:56;;;;;;;0.90;0.73;;;;;;;;;;4600134;27;20126;-70
2022/05/25 05:43:07;;;;;;;0.93;0.77;;;;;;;;;;4565771;27;20150;-69
2022/05/25 05:45:28;;;;;;;0.73;0.63;;;;;;;;;;4598075;27;21025;-70
2022/05/25 05:47:43;;;;;;;1.52;0.80;;;;;;;;;;4596417;27;20085;-70
2022/05/25 05:49:54;;;;;;;0.98;0.75;;;;;;;;;;4596565;27;21120;-70
2022/05/25 05:52:05;;;;;;;1.50;0.77;;;;;;;;;;4597067;27;20043;-70
2022/05/25 05:54:16;;;;;;;1.50;0.80;;;;;;;;;;4599842;27;20633;-70
2022/05/25 05:56:27;;;;;;;0.60;0.60;;;;;;;;;;4597900;27;20039;-69
2022/05/25 05:58:37;;;;;;;1.20;0.73;;;;;;;;;;4597917;27;20034;-69
2022/05/25 06:00:48;;;;;;;1.40;0.80;;;;;;;;;;4597847;27;20701;-69
2022/05/25 06:02:59;;;;;;;0.80;0.80;;;;;;;;;;4596662;27;37147;-70
2022/05/25 06:05:11;;;;;;;1.63;0.90;;;;;;;;;;4598561;27;20032;-70
2022/05/25 06:07:21;;;;;;;1.15;0.90;;;;;;;;;;4588390;27;20044;-70
2022/05/25 06:09:31;;;;;;;2.17;1.00;;;;;;;;;;4600780;27;20035;-70
2022/05/25 06:11:42;;;;;;;2.03;0.90;;;;;;;;;;4595028;27;20051;-69
2022/05/25 06:13:53;;;;;;;1.15;0.90;;;;;;;;;;4597285;27;20141;-70
2022/05/25 06:21:03;;;;;;;1.83;0.90;;;;;;;;;;4596066;27;20032;-69
2022/05/25 06:23:13;;;;;;;2.27;0.87;;;;;;;;;;4597364;27;20019;-70
2022/05/25 06:25:23;;;;;;;2.53;1.00;;;;;;;;;;4594527;27;22851;-70
2022/05/25 06:27:34;;;;;;;1.37;0.90;;;;;;;;;;4594503;27;20110;-69
2022/05/25 06:29:47;;;;;;;2.93;1.30;;;;;;;;;;4596001;27;20038;-69
2022/05/25 06:31:58;;;;;;;2.30;1.00;;;;;;;;;;4598262;27;20034;-70
2022/05/25 06:34:08;;;;;;;2.37;1.10;;;;;;;;;;4596513;27;20079;-70
2022/05/25 06:36:23;;;;;;;2.10;1.20;;;;;;;;;;4597131;27;20126;-70
2022/05/25 06:38:33;;;;;;;1.88;1.00;;;;;;;;;;4595520;27;20095;-69
2022/05/25 06:40:43;;;;;;;1.90;1.00;;;;;;;;;;4594517;27;20156;-70
2022/05/25 06:42:54;;;;;;;3.13;1.30;;;;;;;;;;4596773;27;20103;-70
2022/05/25 06:45:06;;;;;;;2.08;1.23;;;;;;;;;;4598846;27;20036;-70
2022/05/25 06:47:17;;;;;;;1.13;0.90;;;;;;;;;;4594020;27;20043;-70
2022/05/25 06:49:28;;;;;;;2.13;1.10;;;;;;;;;;4598212;27;20261;-70
2022/05/25 06:51:38;;;;;;;1.90;1.10;;;;;;;;;;4598918;27;20034;-70
2022/05/25 06:53:49;;;;;;;1.40;1.00;;;;;;;;;;4598233;27;20066;-70
2022/05/25 06:55:59;;;;;;;2.13;1.02;;;;;;;;;;4597237;27;20039;-70
2022/05/25 06:58:10;;;;;;;1.93;1.20;;;;;;;;;;4597263;27;20035;-70
2022/05/25 07:00:20;;;;;;;2.10;1.20;;;;;;;;;;4595982;27;20088;-70
2022/05/25 07:02:31;;;;;;;1.53;0.90;;;;;;;;;;4596687;27;20027;-70
2022/05/25 07:04:41;;;;;;;2.40;1.20;;;;;;;;;;4593541;27;20400;-70
2022/05/25 07:06:51;;;;;;;1.83;1.30;;;;;;;;;;4596926;27;20187;-70
2022/05/25 07:09:03;;;;;;;2.10;1.07;;;;;;;;;;4597227;27;20111;-70
2022/05/25 07:11:14;;;;;;;1.55;1.10;;;;;;;;;;4596805;27;20040;-70
2022/05/25 07:13:25;;;;;;;1.87;1.10;;;;;;;;;;4579954;27;20034;-70
2022/05/25 07:15:35;;;;;;;3.33;1.50;;;;;;;;;;4597524;27;20035;-70
2022/05/25 07:17:48;;;;;;;1.80;1.20;;;;;;;;;;4596179;27;34765;-70
2022/05/25 07:19:58;;;;;;;1.98;1.40;;;;;;;;;;4597797;27;20096;-70
2022/05/25 07:22:10;;;;;;;1.90;1.50;;;;;;;;;;4597406;27;20089;-70
2022/05/25 07:24:21;;;;;;;2.33;1.13;;;;;;;;;;4597117;27;20638;-70
2022/05/25 07:26:33;;;;;;;2.93;1.50;;;;;;;;;;4595957;27;20047;-70
2022/05/25 07:28:43;;;;;;;1.48;1.20;;;;;;;;;;4596642;27;20075;-70
2022/05/25 07:31:04;;;;;;;3.47;1.30;;;;;;;;;;4595014;27;20552;-71
2022/05/25 07:33:14;;;;;;;1.55;1.30;;;;;;;;;;4598661;27;20023;-70
2022/05/25 07:35:25;;;;;;;2.53;1.43;;;;;;;;;;4595312;27;20491;-70
2022/05/25 07:37:40;;;;;;;2.97;1.60;;;;;;;;;;4596389;27;20043;-70
2022/05/25 07:39:57;;;;;;;1.60;1.27;;;;;;;;;;4598113;27;20070;-70
2022/05/25 07:42:08;;;;;;;2.10;1.20;;;;;;;;;;4594262;27;20602;-70
2022/05/25 07:44:23;;;;;;;2.78;1.50;;;;;;;;;;4597298;27;20130;-71
2022/05/25 07:46:35;;;;;;;2.58;1.50;;;;;;;;;;4595648;27;20043;-71
2022/05/25 07:48:45;;;;;;;3.33;1.65;;;;;;;;;;4595327;27;20038;-71
2022/05/25 07:50:56;;;;;;;2.50;1.53;;;;;;;;;;4595218;27;20080;-71
2022/05/25 07:55:36;;;;;;;3.42;1.35;;;;;;;;;;4594611;27;20320;-71
2022/05/25 07:57:46;;;;;;;3.60;1.80;;;;;;;;;;4597953;27;20035;-71
2022/05/25 07:59:57;;;;;;;2.03;1.10;;;;;;;;;;4596341;27;20050;-70
2022/05/25 08:07:21;;;;;;;2.72;1.27;;;;;;;;;;4589494;27;20114;-71
2022/05/25 08:09:32;;;;;;;1.95;1.13;;;;;;;;;;4597556;27;20088;-71
2022/05/25 08:11:43;;;;;;;1.23;1.13;;;;;;;;;;4615133;27;20553;-71
2022/05/25 08:13:56;;;;;;;2.85;1.05;;;;;;;;;;4598600;27;21555;-71
2022/05/25 08:16:07;;;;;;;1.67;0.85;;;;;;;;;;4597377;27;20499;-71
2022/05/25 08:18:19;;;;;;;2.55;0.98;;;;;;;;;;4601218;27;20043;-71
2022/05/25 08:20:31;;;;;;;1.17;0.80;;;;;;;;;;4597068;27;20131;-71
2022/05/25 08:22:41;;;;;;;;;;;;;;;;;;4600266;27;20579;-71
2022/05/25 08:24:52;;;;;;;2.03;0.70;;;;;;;;;;4597605;27;19919;-71
2022/05/25 08:27:02;;;;;;;0.73;0.67;;;;;;;;;;4598219;27;20093;-70
2022/05/25 08:29:13;;;;;;;1.17;0.60;;;;;;;;;;4599749;27;20038;-71
2022/05/25 08:31:23;;;;;;;2.20;0.80;;;;;;;;;;4599940;27;20027;-71
2022/05/25 08:33:34;;;;;;;2.43;0.87;;;;;;;;;;4597534;27;24701;-71
2022/05/25 08:35:45;;;;;;;1.03;0.50;;;;;;;;;;4598744;27;20131;-70
2022/05/25 08:37:57;;;;;;;1.02;0.52;;;;;;;;;;4598233;27;20028;-71
2022/05/25 08:40:09;;;;;;;0.95;0.57;;;;;;;;;;4597323;27;20070;-71
2022/05/25 08:42:21;;;;;;;0.77;0.50;;;;;;;;;;4596873;27;21181;-71
2022/05/25 08:44:32;;;;;;;1.20;0.50;;;;;;;;;;4601384;27;20593;-71
2022/05/25 08:46:43;;;;;;;0.88;0.60;;;;;;;;;;4599432;27;20511;-70
2022/05/25 08:48:53;;;;;;;1.20;0.50;;;;;;;;;;4598100;27;43617;-70
2022/05/25 08:51:08;;;;;;;0.60;0.50;;;;;;;;;;4600087;27;20039;-71
2022/05/25 08:53:21;;;;;;;1.88;0.60;;;;;;;;;;4599094;27;21058;-71
2022/05/25 08:55:58;;;;;;;1.15;0.52;;;;;;;;;;4601560;27;20062;-71
2022/05/25 08:58:11;;;;;;;2.17;0.68;;;;;;;;;;4598277;27;20039;-71
2022/05/25 09:00:23;;;;;;;0.77;0.55;;;;;;;;;;4601214;27;20027;-70
2022/05/25 09:02:56;;;;;;;0.50;0.50;;;;;;;;;;4597069;27;20036;-71
2022/05/25 09:05:45;;;;;;;1.42;0.50;;;;;;;;;;4597344;27;20032;-70
2022/05/25 09:08:01;;;;;;;0.55;0.40;;;;;;;;;;4595950;27;20060;-70
2022/05/25 09:10:13;;;;;;;0.90;0.50;;;;;;;;;;4596943;27;20030;-70
2022/05/25 09:12:31;;;;;;;1.30;0.50;;;;;;;;;;4593913;27;20031;-71
2022/05/25 09:14:44;;;;;;;1.35;0.50;;;;;;;;;;4597296;27;20042;-71
2022/05/25 09:16:57;;;;;;;0.82;0.40;;;;;;;;;;4595681;27;20035;-71
2022/05/25 09:19:20;;;;;;;0.77;0.30;;;;;;;;;;4600082;27;20082;-71
2022/05/25 09:21:34;;;;;;;0.77;0.50;;;;;;;;;;4598114;27;20135;-70
2022/05/25 09:23:44;;;;;;;1.52;0.63;;;;;;;;;;4597020;27;20821;-71
2022/05/25 09:25:55;;;;;;;0.50;0.40;;;;;;;;;;4596297;27;20040;-71
2022/05/25 09:28:12;;;;;;;0.40;0.30;;;;;;;;;;4598890;27;20602;-71
2022/05/25 09:30:23;;;;;;;0.80;0.50;;;;;;;;;;4598072;27;21141;-71
2022/05/25 09:32:45;;;;;;;0.52;0.38;;;;;;;;;;4596702;27;20138;-71
2022/05/25 09:35:06;;;;;;;0.70;0.50;;;;;;;;;;4595751;27;20543;-71
2022/05/25 09:37:31;;;;;;;0.93;0.40;;;;;;;;;;4589687;27;20039;-71
2022/05/25 09:39:44;;;;;;;1.17;0.40;;;;;;;;;;4598057;27;20523;-71
2022/05/25 09:41:58;;;;;;;1.08;0.43;;;;;;;;;;4595359;27;20023;-71
2022/05/25 09:44:11;;;;;;;1.08;0.50;;;;;;;;;;4598460;27;20047;-71
2022/05/25 09:46:43;;;;;;;1.23;0.40;;;;;;;;;;4596177;27;20027;-71
2022/05/25 09:48:59;;;;;;;0.30;0.30;;;;;;;;;;4594468;27;20038;-71
2022/05/25 09:51:18;;;;;;;0.52;0.43;;;;;;;;;;4597283;27;20061;-70
2022/05/25 09:53:41;;;;;;;0.40;0.40;;;;;;;;;;4597347;27;20039;-71
2022/05/25 09:56:03;;;;;;;0.47;0.40;;;;;;;;;;4597612;27;20157;-71
2022/05/25 09:58:38;;;;;;;1.40;0.40;;;;;;;;;;4606011;27;20080;-71
2022/05/25 10:00:57;;;;;;;0.30;0.30;;;;;;;;;;4600055;27;20074;-70
2022/05/25 10:03:22;;;;;;;0.35;0.35;;;;;;;;;;4596781;27;21543;-71
2022/05/25 10:05:43;;;;;;;1.05;0.47;;;;;;;;;;4598135;27;20189;-70
2022/05/25 10:08:02;;;;;;;0.43;0.40;;;;;;;;;;4598991;27;20035;-70
2022/05/25 10:10:13;;;;;;;0.52;0.35;;;;;;;;;;4598561;27;20035;-71
2022/05/25 10:12:33;;;;;;;0.97;0.40;;;;;;;;;;4595307;27;20032;-70
2022/05/25 10:14:55;;;;;;;2.25;0.47;;;;;;;;;;4598948;27;21574;-70
2022/05/25 10:17:14;;;;;;;0.35;0.30;;;;;;;;;;4596266;27;20044;-70
2022/05/25 10:19:25;;;;;;;0.68;0.30;;;;;;;;;;4598873;27;20031;-70
2022/05/25 10:21:36;;;;;;;0.30;0.30;;;;;;;;;;4596578;27;20019;-70
2022/05/25 10:23:47;;;;;;;0.50;0.40;;;;;;;;;;4595726;27;20035;-70
2022/05/25 10:26:19;;;;;;;1.03;0.40;;;;;;;;;;4596215;27;20375;-70
2022/05/25 10:28:36;;;;;;;0.70;0.40;;;;;;;;;;4597389;27;20043;-71
2022/05/25 10:36:45;;;;;;;0.77;0.45;;;;;;;;;;4594683;27;20035;-70
2022/05/25 10:39:19;;;;;;;0.93;0.30;;;;;;;;;;4597149;27;20119;-70
2022/05/25 10:41:40;;;;;;;0.93;0.43;;;;;;;;;;4598655;27;20123;-70
2022/05/25 10:44:05;;;;;;;3.95;0.52;;;;;;;;;;4605865;27;20023;-71
2022/05/25 10:46:16;;;;;;;0.30;0.30;;;;;;;;;;4594856;27;20035;-70
2022/05/25 10:48:49;;;;;;;1.00;0.33;;;;;;;;;;4595573;27;20089;-70
2022/05/25 10:51:27;;;;;;;0.30;0.30;;;;;;;;;;4595989;27;20032;-71
2022/05/25 10:54:44;;;;;;;0.85;0.40;;;;;;;;;;4595420;27;20160;-70
2022/05/25 10:56:36;;;;;;;0.85;0.40;;;;;;;;;;4594192;27;20027;-70
2022/05/25 10:58:52;;;;;;;0.50;0.38;;;;;;;;;;4593957;27;20032;-70
2022/05/25 11:01:09;;;;;;;1.00;0.40;;;;;;;;;;4596862;27;20035;-70
2022/05/25 11:03:59;;;;;;;0.35;0.35;;;;;;;;;;4584056;27;20036;-70
2022/05/25 11:06:35;;;;;;;0.60;0.30;;;;;;;;;;4554249;27;20126;-70
2022/05/25 11:08:57;;;;;;;0.50;0.35;;;;;;;;;;4596294;27;20114;-71
2022/05/25 11:11:36;;;;;;;0.30;0.30;;;;;;;;;;4595305;27;20081;-70
2022/05/25 11:14:17;;;;;;;1.58;0.32;;;;;;;;;;4604468;27;20046;-71
2022/05/25 11:16:46;;;;;;;0.60;0.30;;;;;;;;;;4595709;27;20506;-71
2022/05/25 11:19:27;;;;;;;0.35;0.30;;;;;;;;;;4594110;27;20126;-71
2022/05/25 11:22:07;;;;;;;0.45;0.30;;;;;;;;;;4583735;27;20043;-71
2022/05/25 11:24:30;;;;;;;0.43;0.30;;;;;;;;;;4597835;27;20039;-70
2022/05/25 11:26:51;;;;;;;0.30;0.30;;;;;;;;;;4596270;27;20048;-71
2022/05/25 11:29:24;;;;;;;0.97;0.40;;;;;;;;;;4597069;27;20023;-71
2022/05/25 11:32:08;;;;;;;0.63;0.40;;;;;;;;;;4594617;27;20123;-71
2022/05/25 11:34:45;;;;;;;0.75;0.40;;;;;;;;;;4568321;27;20050;-70
2022/05/25 11:37:05;;;;;;;1.05;0.43;;;;;;;;;;4596697;27;20039;-71
2022/05/25 11:39:47;;;;;;;0.77;0.43;;;;;;;;;;4595665;27;21036;-70
2022/05/25 11:42:17;;;;;;;1.30;0.50;;;;;;;;;;4595071;27;20529;-70
2022/05/25 11:44:40;;;;;;;0.45;0.40;;;;;;;;;;4606876;27;20629;-70
2022/05/25 11:46:50;;;;;;;0.52;0.30;;;;;;;;;;4598833;27;20040;-70
2022/05/25 11:49:23;;;;;;;0.43;0.30;;;;;;;;;;4597820;27;20031;-70
2022/05/25 11:51:55;;;;;;;0.60;0.40;;;;;;;;;;4599994;27;20689;-70
2022/05/25 11:54:35;;;;;;;0.40;0.40;;;;;;;;;;4599056;27;20122;-70
2022/05/25 11:56:57;;;;;;;0.40;0.35;;;;;;;;;;4570956;27;20043;-70
2022/05/25 11:59:20;;;;;;;0.50;0.32;;;;;;;;;;4599923;27;20564;-70
2022/05/25 12:01:53;;;;;;;0.60;0.40;;;;;;;;;;4599177;27;20617;-70
2022/05/25 12:04:39;;;;;;;0.55;0.40;;;;;;;;;;4600107;27;20036;-70
2022/05/25 12:07:15;;;;;;;1.27;0.40;;;;;;;;;;4599290;27;20572;-70
2022/05/25 12:09:43;;;;;;;0.73;0.40;;;;;;;;;;4599534;27;20117;-70
2022/05/25 12:12:15;;;;;;;0.82;0.40;;;;;;;;;;4600087;27;20812;-70
2022/05/25 12:14:25;;;;;;;1.27;0.30;;;;;;;;;;4597430;27;20951;-70
2022/05/25 12:16:41;;;;;;;0.30;0.30;;;;;;;;;;4599677;27;20035;-70
2022/05/25 12:19:10;;;;;;;1.13;0.40;;;;;;;;;;4580451;27;20151;-70
2022/05/25 12:21:30;;;;;;;0.90;0.30;;;;;;;;;;4596523;27;20275;-70
2022/05/25 12:23:46;;;;;;;0.85;0.40;;;;;;;;;;4598001;27;20139;-70
2022/05/25 12:26:01;;;;;;;0.43;0.30;;;;;;;;;;4599042;27;20085;-70
2022/05/25 12:28:11;;;;;;;1.05;0.32;;;;;;;;;;4596369;27;20032;-70
2022/05/25 12:30:39;;;;;;;0.90;0.30;;;;;;;;;;4600137;27;20039;-70
2022/05/25 12:32:49;;;;;;;0.55;0.20;;;;;;;;;;4597510;27;20032;-70
2022/05/25 12:35:00;;;;;;;1.60;0.50;;;;;;;;;;4598062;27;20032;-70
2022/05/25 12:37:14;;;;;;;1.40;0.43;;;;;;;;;;4600707;27;20051;-70
2022/05/25 12:40:24;;;;;;;0.30;0.20;;;;;;;;;;4600452;27;20077;-70
2022/05/25 12:42:43;;;;;;;1.88;0.32;;;;;;;;;;4499006;28;20052;-70
2022/05/25 12:49:52;;;;;;;1.02;0.30;;;;;;;;;;4597421;27;20183;-70
2022/05/25 12:52:28;;;;;;;0.50;0.40;;;;;;;;;;4597052;27;43400;-70
2022/05/25 12:54:42;;;;;;;0.70;0.30;;;;;;;;;;4598759;27;20038;-70
2022/05/25 12:56:53;;;;;;;0.50;0.20;;;;;;;;;;4597315;27;20038;-70
2022/05/25 12:59:12;;;;;;;1.23;0.30;;;;;;;;;;4588517;27;20108;-70
2022/05/25 13:01:28;;;;;;;0.85;0.30;;;;;;;;;;4597866;27;20093;-70
2022/05/25 13:04:08;;;;;;;0.30;0.22;;;;;;;;;;4601137;27;20031;-70
2022/05/25 13:06:21;;;;;;;0.70;0.38;;;;;;;;;;4606099;27;20043;-70
2022/05/25 13:08:47;;;;;;;0.30;0.20;;;;;;;;;;4597992;27;20042;-70
2022/05/25 13:11:01;;;;;;;0.77;0.28;;;;;;;;;;4596029;27;20039;-70
2022/05/25 13:13:32;;;;;;;0.32;0.30;;;;;;;;;;4597986;27;20039;-70
2022/05/25 13:15:43;;;;;;;0.30;0.30;;;;;;;;;;4597769;27;21169;-70
2022/05/25 13:17:54;;;;;;;;;;;;;;;;;;4598282;27;20805;-70
2022/05/25 13:20:07;;;;;;;0.60;0.30;;;;;;;;;;4598721;27;19915;-70
2022/05/25 13:22:17;;;;;;;0.20;0.20;;;;;;;;;;4596035;27;20762;-69
2022/05/25 13:25:01;;;;;;;0.23;0.23;;;;;;;;;;4596450;27;20040;-70
2022/05/25 13:27:19;;;;;;;0.65;0.30;;;;;;;;;;4594825;27;20712;-70
2022/05/25 13:29:42;;;;;;;1.20;0.32;;;;;;;;;;4594478;27;20089;-67
2022/05/25 13:32:02;;;;;;;0.28;0.28;;;;;;;;;;4587712;27;20020;-66
2022/05/25 13:34:15;;;;;;;0.22;0.20;;;;;;;;;;4599011;27;20036;-67
2022/05/25 13:36:28;;;;;;;0.85;0.38;;;;;;;;;;4597923;27;20069;-71
2022/05/25 13:38:57;;;;;;;0.45;0.20;;;;;;;;;;4597985;27;21231;-67
2022/05/25 13:41:13;;;;;;;0.60;0.30;;;;;;;;;;4597411;27;20131;-68
2022/05/25 13:43:48;;;;;;;0.32;0.28;;;;;;;;;;4596413;27;20028;-70
2022/05/25 13:45:59;;;;;;;0.45;0.30;;;;;;;;;;4576212;27;20841;-66
2022/05/25 13:48:14;;;;;;;0.20;0.20;;;;;;;;;;4597489;27;23261;-70
2022/05/25 13:50:36;;;;;;;0.70;0.22;;;;;;;;;;4594499;27;20714;-69
2022/05/25 13:52:46;;;;;;;0.73;0.35;;;;;;;;;;4595786;27;20039;-69
2022/05/25 13:54:58;;;;;;;0.30;0.30;;;;;;;;;;4598400;27;20518;-69
2022/05/25 13:57:27;;;;;;;0.22;0.20;;;;;;;;;;4596224;27;20055;-69
2022/05/25 13:59:39;;;;;;;0.63;0.30;;;;;;;;;;4595896;27;20046;-69
2022/05/25 14:01:49;;;;;;;0.50;0.30;;;;;;;;;;4597523;27;20465;-69
2022/05/25 14:04:04;;;;;;;0.30;0.30;;;;;;;;;;4596949;27;20028;-70
2022/05/25 14:06:15;;;;;;;0.30;0.30;;;;;;;;;;4594096;27;20130;-69
2022/05/25 14:11:16;;;;;;;1.23;0.55;;;;;;;;;;4548849;27;20697;-69
2022/05/25 14:13:29;;;;;;;0.30;0.30;;;;;;;;;;4587330;27;20063;-69
2022/05/25 14:15:39;;;;;;;0.35;0.35;;;;;;;;;;4594817;27;20121;-69